sensor_id;sensor_type;location;lat;lon;timestamp;P1;durP1;ratioP1;P2;durP2;ratioP2
12842;SDS011;35724;49.324;-123.118;2023-01-28T00:05:27;1.08;;;0.82;;
12842;SDS011;35724;49.324;-123.118;2023-01-28T00:15:34;1.00;;;0.82;;
12842;SDS011;35724;49.324;-123.118;2023-01-28T00:25:45;1.85;;;1.00;;
12842;SDS011;35724;49.324;-123.118;2023-01-28T00:35:59;1.10;;;0.90;;
12842;SDS011;35724;49.324;-123.118;2023-01-28T00:46:08;3.25;;;1.58;;
12842;SDS011;35724;49.324;-123.118;2023-01-28T00:56:16;3.50;;;2.42;;
12842;SDS011;35724;49.324;-123.118;2023-01-28T01:06:26;1.85;;;1.75;;
12842;SDS011;35724;49.324;-123.118;2023-01-28T01:16:39;1.42;;;1.15;;
12842;SDS011;35724;49.324;-123.118;2023-01-28T01:26:48;0.90;;;0.90;;
12842;SDS011;35724;49.324;-123.118;2023-01-28T01:36:58;0.70;;;0.70;;
12842;SDS011;35724;49.324;-123.118;2023-01-28T01:47:09;0.90;;;0.70;;
12842;SDS011;35724;49.324;-123.118;2023-01-28T02:54:21;0.52;;;0.47;;
12842;SDS011;35724;49.324;-123.118;2023-01-28T03:15:40;3.30;;;1.00;;
12842;SDS011;35724;49.324;-123.118;2023-01-28T03:26:07;4.50;;;1.10;;
12842;SDS011;35724;49.324;-123.118;2023-01-28T03:36:34;1.10;;;1.00;;
12842;SDS011;35724;49.324;-123.118;2023-01-28T03:47:24;1.55;;;1.10;;
12842;SDS011;35724;49.324;-123.118;2023-01-28T03:57:37;1.02;;;1.00;;
12842;SDS011;35724;49.324;-123.118;2023-01-28T04:07:53;0.85;;;0.85;;
12842;SDS011;35724;49.324;-123.118;2023-01-28T04:18:26;0.80;;;0.75;;
12842;SDS011;35724;49.324;-123.118;2023-01-28T04:28:39;1.20;;;1.10;;
12842;SDS011;35724;49.324;-123.118;2023-01-28T04:38:54;1.17;;;0.90;;
12842;SDS011;35724;49.324;-123.118;2023-01-28T04:49:12;1.10;;;0.90;;
12842;SDS011;35724;49.324;-123.118;2023-01-28T04:59:35;1.20;;;1.00;;
12842;SDS011;35724;49.324;-123.118;2023-01-28T05:09:49;1.58;;;1.20;;
12842;SDS011;35724;49.324;-123.118;2023-01-28T05:40:43;1.08;;;1.00;;
12842;SDS011;35724;49.324;-123.118;2023-01-28T05:50:52;1.20;;;1.10;;
12842;SDS011;35724;49.324;-123.118;2023-01-28T06:01:09;2.05;;;0.90;;
12842;SDS011;35724;49.324;-123.118;2023-01-28T06:11:24;1.00;;;1.00;;
12842;SDS011;35724;49.324;-123.118;2023-01-28T06:21:37;0.95;;;0.95;;
12842;SDS011;35724;49.324;-123.118;2023-01-28T06:31:46;0.90;;;0.90;;
12842;SDS011;35724;49.324;-123.118;2023-01-28T06:41:59;1.10;;;1.00;;
12842;SDS011;35724;49.324;-123.118;2023-01-28T06:52:06;1.73;;;0.95;;
12842;SDS011;35724;49.324;-123.118;2023-01-28T07:13:00;1.50;;;1.40;;
12842;SDS011;35724;49.324;-123.118;2023-01-28T07:23:07;1.88;;;1.20;;
12842;SDS011;35724;49.324;-123.118;2023-01-28T07:33:17;1.33;;;1.23;;
12842;SDS011;35724;49.324;-123.118;2023-01-28T07:43:24;1.20;;;1.10;;
12842;SDS011;35724;49.324;-123.118;2023-01-28T07:53:38;1.30;;;1.20;;
12842;SDS011;35724;49.324;-123.118;2023-01-28T08:15:12;1.10;;;1.00;;
12842;SDS011;35724;49.324;-123.118;2023-01-28T08:25:21;0.80;;;0.80;;
12842;SDS011;35724;49.324;-123.118;2023-01-28T08:35:29;0.88;;;0.88;;
12842;SDS011;35724;49.324;-123.118;2023-01-28T08:45:44;0.80;;;0.80;;
12842;SDS011;35724;49.324;-123.118;2023-01-28T09:07:32;0.70;;;0.70;;
12842;SDS011;35724;49.324;-123.118;2023-01-28T09:17:57;0.90;;;0.90;;
12842;SDS011;35724;49.324;-123.118;2023-01-28T09:40:36;0.80;;;0.80;;
12842;SDS011;35724;49.324;-123.118;2023-01-28T13:12:08;0.45;;;0.45;;
12842;SDS011;35724;49.324;-123.118;2023-01-28T13:22:25;0.50;;;0.50;;
12842;SDS011;35724;49.324;-123.118;2023-01-28T13:32:53;0.60;;;0.60;;
12842;SDS011;35724;49.324;-123.118;2023-01-28T14:32:42;0.52;;;0.52;;
12842;SDS011;35724;49.324;-123.118;2023-01-28T14:44:39;0.40;;;0.40;;
12842;SDS011;35724;49.324;-123.118;2023-01-28T18:42:01;1.48;;;1.30;;
12842;SDS011;35724;49.324;-123.118;2023-01-28T18:52:11;2.22;;;1.25;;
12842;SDS011;35724;49.324;-123.118;2023-01-28T19:02:34;1.42;;;1.20;;
12842;SDS011;35724;49.324;-123.118;2023-01-28T19:12:46;1.23;;;1.00;;
12842;SDS011;35724;49.324;-123.118;2023-01-28T19:33:54;1.70;;;1.38;;
12842;SDS011;35724;49.324;-123.118;2023-01-28T19:44:03;4.63;;;1.33;;
12842;SDS011;35724;49.324;-123.118;2023-01-28T19:54:11;2.67;;;1.30;;
12842;SDS011;35724;49.324;-123.118;2023-01-28T20:04:28;1.25;;;1.00;;
12842;SDS011;35724;49.324;-123.118;2023-01-28T20:15:02;1.50;;;1.27;;
12842;SDS011;35724;49.324;-123.118;2023-01-28T20:25:16;1.30;;;1.00;;
12842;SDS011;35724;49.324;-123.118;2023-01-28T20:35:26;1.58;;;1.10;;
12842;SDS011;35724;49.324;-123.118;2023-01-28T20:45:36;1.67;;;1.10;;
12842;SDS011;35724;49.324;-123.118;2023-01-28T20:55:44;1.17;;;0.98;;
12842;SDS011;35724;49.324;-123.118;2023-01-28T21:06:06;0.90;;;0.77;;
12842;SDS011;35724;49.324;-123.118;2023-01-28T21:16:27;0.63;;;0.63;;
12842;SDS011;35724;49.324;-123.118;2023-01-28T21:26:36;0.63;;;0.63;;
12842;SDS011;35724;49.324;-123.118;2023-01-28T21:36:43;0.80;;;0.80;;
12842;SDS011;35724;49.324;-123.118;2023-01-28T21:46:51;0.70;;;0.60;;
12842;SDS011;35724;49.324;-123.118;2023-01-28T21:57:06;0.80;;;0.80;;
12842;SDS011;35724;49.324;-123.118;2023-01-28T22:07:17;0.98;;;0.73;;
12842;SDS011;35724;49.324;-123.118;2023-01-28T22:17:55;0.70;;;0.70;;
12842;SDS011;35724;49.324;-123.118;2023-01-28T22:28:06;0.70;;;0.70;;
12842;SDS011;35724;49.324;-123.118;2023-01-28T22:49:57;0.65;;;0.65;;
12842;SDS011;35724;49.324;-123.118;2023-01-28T23:00:08;0.70;;;0.70;;
12842;SDS011;35724;49.324;-123.118;2023-01-28T23:10:19;0.88;;;0.70;;
12842;SDS011;35724;49.324;-123.118;2023-01-28T23:20:29;1.02;;;0.90;;
12842;SDS011;35724;49.324;-123.118;2023-01-28T23:30:54;0.73;;;0.73;;
12842;SDS011;35724;49.324;-123.118;2023-01-28T23:41:04;1.23;;;0.80;;
12842;SDS011;35724;49.324;-123.118;2023-01-28T23:51:13;1.10;;;0.80;;
